Time;durP1;ratioP1;P1;durP2;ratioP2;P2;SDS_P1;SDS_P2;PMS_P1;PMS_P2;Temp;Humidity;BMP_temperature;BMP_pressure;BME280_temperature;BME280_humidity;BME280_pressure;Samples;Min_cycle;Max_cycle;Signal;HPM_P1;HPM_P2
2022/01/16 03:46:38;;;;;;;56.45;20.85;;;-1.90;95.80;;;;;;5181406;24;20118;-81
2022/01/16 03:49:05;;;;;;;41.13;20.70;;;-2.00;95.90;;;;;;4803185;29;20090;-81
2022/01/16 03:51:31;;;;;;;48.97;22.67;;;-2.00;95.80;;;;;;4787895;30;20039;-81
2022/01/16 03:53:57;;;;;;;49.80;20.60;;;-2.00;96.00;;;;;;4785559;30;20039;-80
2022/01/16 03:56:23;;;;;;;59.47;28.83;;;-2.00;96.30;;;;;;4783829;30;20283;-81
2022/01/16 03:58:49;;;;;;;40.83;21.30;;;-2.00;96.70;;;;;;4768589;30;20039;-80
2022/01/16 04:01:15;;;;;;;57.03;26.58;;;-1.90;96.90;;;;;;4798587;30;20312;-80
2022/01/16 04:03:41;;;;;;;60.20;25.55;;;-1.90;97.00;;;;;;4783522;30;20055;-80
2022/01/16 04:06:06;;;;;;;53.95;22.67;;;-1.80;97.00;;;;;;4783308;30;20105;-80
2022/01/16 04:08:32;;;;;;;51.23;24.40;;;-1.80;97.00;;;;;;4798120;30;20035;-80
2022/01/16 04:10:59;;;;;;;51.60;22.88;;;-1.90;96.80;;;;;;4783183;30;20235;-80
2022/01/16 04:13:25;;;;;;;;;;;-1.80;96.80;;;;;;4798582;30;20057;-80
2022/01/16 04:15:50;;;;;;;45.57;22.30;;;-1.90;96.50;;;;;;4784839;29;19913;-80
2022/01/16 04:18:16;;;;;;;44.03;20.55;;;-1.90;96.50;;;;;;4803683;29;20035;-80
2022/01/16 04:20:42;;;;;;;53.50;23.20;;;-1.90;96.40;;;;;;4759538;30;20040;-80
2022/01/16 04:23:10;;;;;;;46.17;21.10;;;-2.00;96.40;;;;;;4783018;30;20092;-80
2022/01/16 04:25:36;;;;;;;51.13;22.17;;;-2.00;96.20;;;;;;4794913;29;20081;-80
2022/01/16 04:28:04;;;;;;;49.00;22.52;;;-2.00;96.30;;;;;;4794781;30;20299;-80
2022/01/16 04:30:30;;;;;;;54.28;24.95;;;-2.00;96.10;;;;;;4797563;29;20110;-81
2022/01/16 04:32:55;;;;;;;47.00;22.73;;;-2.00;96.10;;;;;;4767673;29;20351;-81
2022/01/16 04:35:21;;;;;;;47.33;23.52;;;-2.10;96.20;;;;;;4782587;30;20026;-81
2022/01/16 04:37:47;;;;;;;52.08;22.70;;;-2.10;96.00;;;;;;4797650;30;20039;-81
2022/01/16 04:40:15;;;;;;;43.53;20.02;;;-2.10;95.90;;;;;;4782766;30;20039;-81
2022/01/16 04:45:25;;;;;;;50.45;22.83;;;-2.10;95.70;;;;;;4789457;29;20061;-81
2022/01/16 04:47:52;;;;;;;55.50;23.73;;;-2.10;95.70;;;;;;4800593;29;20042;-81
2022/01/16 04:50:21;;;;;;;;;;;-2.10;95.70;;;;;;4815945;29;20292;-81
2022/01/16 04:52:47;;;;;;;55.92;23.20;;;-2.20;95.70;;;;;;4800619;29;19909;-80
2022/01/16 04:55:13;;;;;;;55.30;25.40;;;-2.20;95.70;;;;;;4800331;29;20326;-80
2022/01/16 04:57:40;;;;;;;59.08;26.42;;;-2.20;96.00;;;;;;4797231;30;20137;-80
2022/01/16 05:00:09;;;;;;;56.00;25.52;;;-2.20;96.10;;;;;;4800285;29;20230;-80
2022/01/16 05:02:34;;;;;;;48.33;23.35;;;-2.10;96.00;;;;;;4815219;29;20114;-80
2022/01/16 05:05:00;;;;;;;55.47;26.53;;;-2.10;96.00;;;;;;4770484;29;20039;-80
2022/01/16 05:07:26;;;;;;;52.53;24.50;;;-2.20;95.80;;;;;;4800257;29;20066;-81
2022/01/16 05:09:52;;;;;;;53.95;25.35;;;-2.20;95.80;;;;;;4785178;29;20050;-81
2022/01/16 05:12:26;;;;;;;52.57;26.20;;;-2.20;95.80;;;;;;4797087;30;20035;-81
2022/01/16 05:17:36;;;;;;;54.10;25.60;;;-2.20;95.80;;;;;;4786561;29;20227;-80
2022/01/16 05:20:03;;;;;;;56.90;26.00;;;-2.20;95.90;;;;;;4784937;29;20051;-80
2022/01/16 05:22:29;;;;;;;47.05;23.63;;;-2.20;95.80;;;;;;4799873;29;20358;-80
2022/01/16 05:24:55;;;;;;;60.42;26.98;;;-2.20;95.70;;;;;;4814860;29;20106;-81
2022/01/16 05:27:20;;;;;;;55.13;24.40;;;-2.30;95.70;;;;;;4799694;29;20038;-81
2022/01/16 05:29:46;;;;;;;59.03;28.45;;;-2.30;95.70;;;;;;4770037;29;20045;-81
2022/01/16 05:32:15;;;;;;;62.97;29.20;;;-2.30;95.80;;;;;;4769847;29;20044;-79
2022/01/16 05:34:41;;;;;;;61.25;28.33;;;-2.30;95.80;;;;;;4771036;29;20101;-79
2022/01/16 05:37:07;;;;;;;61.10;28.20;;;-2.30;96.10;;;;;;4770007;29;20026;-81
2022/01/16 05:39:34;;;;;;;65.15;31.05;;;-2.30;96.10;;;;;;4784861;29;20065;-80
2022/01/16 05:42:00;;;;;;;56.15;28.15;;;-2.30;96.10;;;;;;4799655;29;20035;-80
2022/01/16 05:44:26;;;;;;;67.00;28.70;;;-2.30;96.40;;;;;;4770155;29;20050;-80
2022/01/16 05:46:52;;;;;;;52.10;24.93;;;-2.30;96.50;;;;;;4814468;29;20050;-81
2022/01/16 05:49:18;;;;;;;71.50;29.90;;;-2.30;96.50;;;;;;4799338;29;20081;-80
2022/01/16 05:51:44;;;;;;;55.75;26.83;;;-2.30;96.40;;;;;;4785029;29;20035;-80
2022/01/16 05:54:09;;;;;;;68.43;32.92;;;-2.30;96.50;;;;;;4796552;30;20031;-81
2022/01/16 05:56:37;;;;;;;63.03;30.15;;;-2.30;96.70;;;;;;4773799;29;20046;-80
2022/01/16 05:59:02;;;;;;;62.13;30.00;;;-2.30;96.70;;;;;;4799643;29;20031;-80
2022/01/16 06:01:28;;;;;;;71.33;30.67;;;-2.30;96.70;;;;;;4799452;29;20043;-81
2022/01/16 06:03:54;;;;;;;59.17;28.10;;;-2.30;96.70;;;;;;4769995;29;20026;-81
2022/01/16 06:06:20;;;;;;;67.97;30.48;;;-2.30;96.70;;;;;;4799582;29;20027;-81
2022/01/16 06:08:46;;;;;;;59.55;28.38;;;-2.30;96.70;;;;;;4799316;29;20035;-82
2022/01/16 06:11:11;;;;;;;67.95;30.17;;;-2.30;96.60;;;;;;4769566;29;20287;-81
2022/01/16 06:13:37;;;;;;;63.63;31.63;;;-2.30;96.60;;;;;;4781827;30;20050;-81
2022/01/16 06:16:04;;;;;;;71.60;34.97;;;-2.30;96.40;;;;;;4769529;29;20073;-81
2022/01/16 06:18:29;;;;;;;65.50;30.85;;;-2.30;96.50;;;;;;4781525;29;20447;-81
2022/01/16 06:20:55;;;;;;;61.43;31.87;;;-2.30;96.60;;;;;;4799324;29;20043;-81
2022/01/16 06:23:21;;;;;;;62.42;30.48;;;-2.30;96.40;;;;;;4799271;29;20038;-81
2022/01/16 06:25:54;;;;;;;47.80;22.80;;;-2.30;96.70;;;;;;4796245;30;20039;-82
2022/01/16 06:28:21;;;;;;;77.15;32.70;;;-2.30;96.80;;;;;;4798319;29;20417;-82
2022/01/16 06:30:48;;;;;;;58.75;27.20;;;-2.20;96.80;;;;;;4796398;29;20088;-81
2022/01/16 06:33:13;;;;;;;66.10;30.70;;;-2.20;96.80;;;;;;4765749;30;20070;-81
2022/01/16 06:35:39;;;;;;;69.17;31.97;;;-2.20;96.80;;;;;;4777286;29;20238;-82
2022/01/16 06:38:05;;;;;;;88.95;34.70;;;-2.20;96.80;;;;;;4769569;29;20125;-81
2022/01/16 06:40:31;;;;;;;71.68;33.35;;;-2.20;96.80;;;;;;4799077;29;20034;-82
2022/01/16 06:42:57;;;;;;;59.92;30.13;;;-2.20;96.80;;;;;;4798963;29;20042;-81
2022/01/16 06:45:23;;;;;;;64.95;31.35;;;-2.10;96.80;;;;;;4788415;29;20330;-81
2022/01/16 06:47:51;;;;;;;64.25;28.45;;;-2.10;96.80;;;;;;4806848;29;20035;-81
2022/01/16 06:50:17;;;;;;;74.57;33.00;;;-2.10;96.60;;;;;;4790104;29;20406;-81
2022/01/16 06:52:43;;;;;;;77.18;33.92;;;-2.10;96.60;;;;;;4807743;29;20285;-81
2022/01/16 06:55:09;;;;;;;73.37;32.53;;;-2.10;96.60;;;;;;4790040;29;20102;-81
2022/01/16 06:57:35;;;;;;;77.68;34.28;;;-2.10;96.90;;;;;;4812517;29;20349;-81
2022/01/16 07:00:02;;;;;;;81.35;32.83;;;-2.00;96.90;;;;;;4800712;29;20109;-82
2022/01/16 07:02:28;;;;;;;83.03;33.35;;;-2.00;96.70;;;;;;4800949;29;20080;-81
2022/01/16 07:04:54;;;;;;;80.53;35.80;;;-2.00;96.80;;;;;;4770969;29;20102;-81
2022/01/16 07:07:20;;;;;;;71.23;32.50;;;-1.90;96.70;;;;;;4800606;29;20058;-82
2022/01/16 07:09:46;;;;;;;86.07;34.97;;;-1.90;96.70;;;;;;4800275;29;20046;-81
2022/01/16 07:12:12;;;;;;;82.47;35.40;;;-1.90;96.70;;;;;;4801786;29;20022;-80
2022/01/16 07:14:38;;;;;;;71.40;31.33;;;-1.90;96.90;;;;;;4823274;29;20034;-81
2022/01/16 07:17:04;;;;;;;70.30;31.33;;;-1.90;96.80;;;;;;4809081;29;20090;-80
2022/01/16 07:19:30;;;;;;;74.10;32.27;;;-1.90;96.70;;;;;;4795492;29;20040;-80
2022/01/16 07:21:55;;;;;;;91.03;39.47;;;-1.80;96.80;;;;;;4793173;29;20058;-82
2022/01/16 07:24:21;;;;;;;86.57;37.33;;;-1.80;97.50;;;;;;4789629;29;20034;-82
2022/01/16 07:26:47;;;;;;;91.60;37.70;;;-1.70;97.70;;;;;;4800491;29;20069;-81
2022/01/16 07:29:13;;;;;;;88.93;37.58;;;-1.60;97.50;;;;;;4800267;29;20050;-81
2022/01/16 07:31:39;;;;;;;82.65;34.03;;;-1.50;97.30;;;;;;4783629;29;20319;-81
2022/01/16 07:34:06;;;;;;;79.23;31.63;;;-1.50;97.10;;;;;;4785756;29;20080;-81
2022/01/16 07:36:32;;;;;;;94.72;39.65;;;-1.40;97.10;;;;;;4800422;29;20276;-81
2022/01/16 07:38:58;;;;;;;68.67;30.27;;;-1.30;97.00;;;;;;4815157;29;20323;-82
2022/01/16 07:41:24;;;;;;;67.30;33.37;;;-1.20;96.90;;;;;;4785114;29;20159;-82
2022/01/16 07:43:50;;;;;;;85.78;36.65;;;-1.20;96.70;;;;;;4785188;29;20039;-82
2022/01/16 07:46:19;;;;;;;83.80;35.90;;;-1.10;96.80;;;;;;4771456;29;20059;-81
2022/01/16 07:48:44;;;;;;;78.63;35.67;;;-1.10;96.80;;;;;;4799807;29;20203;-81
2022/01/16 07:51:11;;;;;;;74.22;37.35;;;-1.00;97.10;;;;;;4770369;29;20049;-81
2022/01/16 07:53:37;;;;;;;;;;;-0.90;97.90;;;;;;4800831;29;20033;-82
2022/01/16 07:56:04;;;;;;;86.53;39.03;;;-0.80;98.50;;;;;;4784995;29;20105;-82
2022/01/16 07:58:30;;;;;;;111.13;44.03;;;-0.70;98.50;;;;;;4784974;29;20060;-81
2022/01/16 08:00:56;;;;;;;84.55;39.05;;;-0.60;98.40;;;;;;4784906;29;20484;-81
2022/01/16 08:03:23;;;;;;;69.05;34.30;;;-0.50;98.40;;;;;;4801883;29;20042;-81
2022/01/16 08:05:49;;;;;;;79.57;34.75;;;-0.40;98.20;;;;;;4789362;29;20034;-81
2022/01/16 08:08:14;;;;;;;80.57;37.80;;;-0.30;97.80;;;;;;4815607;29;20030;-81
2022/01/16 08:10:41;;;;;;;74.80;35.65;;;-0.20;97.50;;;;;;4800430;29;20077;-81
2022/01/16 08:13:07;;;;;;;72.47;36.65;;;-0.10;97.40;;;;;;4782202;29;20050;-81
2022/01/16 08:15:33;;;;;;;96.20;39.20;;;0.00;97.40;;;;;;4796377;29;20035;-81
2022/01/16 08:17:59;;;;;;;78.88;36.15;;;0.00;97.70;;;;;;4784690;29;20053;-81
2022/01/16 08:20:25;;;;;;;72.47;34.03;;;0.00;98.00;;;;;;4798672;29;20034;-81
2022/01/16 08:22:54;;;;;;;78.10;35.28;;;0.10;97.90;;;;;;4784658;29;20152;-81
2022/01/16 08:25:21;;;;;;;81.85;38.03;;;0.20;98.30;;;;;;4796503;29;20088;-81
2022/01/16 08:27:46;;;;;;;80.78;38.05;;;0.30;97.90;;;;;;4798130;29;20338;-81
2022/01/16 08:30:13;;;;;;;76.05;38.50;;;0.30;98.10;;;;;;4798020;29;20049;-81
2022/01/16 08:32:39;;;;;;;81.20;36.77;;;0.40;98.20;;;;;;4799384;29;20222;-81
2022/01/16 08:35:06;;;;;;;78.38;37.78;;;0.50;98.10;;;;;;4785326;29;20027;-81
2022/01/16 08:37:32;;;;;;;78.45;37.78;;;0.60;98.10;;;;;;4785793;29;20038;-81
2022/01/16 08:39:58;;;;;;;75.55;34.65;;;0.70;98.00;;;;;;4770491;29;20031;-81
2022/01/16 08:42:24;;;;;;;74.40;34.97;;;0.70;97.90;;;;;;4784447;29;20070;-81
2022/01/16 08:44:49;;;;;;;77.13;35.42;;;0.80;98.00;;;;;;4798445;29;20069;-81
2022/01/16 08:47:15;;;;;;;89.90;38.35;;;0.90;98.00;;;;;;4798900;29;20059;-81
2022/01/16 08:49:41;;;;;;;66.25;34.20;;;1.00;98.10;;;;;;4806236;29;20046;-81
2022/01/16 08:52:08;;;;;;;64.95;33.13;;;1.10;97.90;;;;;;4784422;29;20053;-81
2022/01/16 08:54:34;;;;;;;71.22;34.25;;;1.10;97.70;;;;;;4799110;29;20226;-81
2022/01/16 08:57:00;;;;;;;71.38;33.42;;;1.20;97.80;;;;;;4798862;29;20035;-81
2022/01/16 08:59:27;;;;;;;65.57;33.97;;;1.20;97.90;;;;;;4769964;29;20031;-81
2022/01/16 09:01:52;;;;;;;68.70;34.93;;;1.20;98.00;;;;;;4769804;29;20058;-81
2022/01/16 09:04:18;;;;;;;68.35;35.30;;;1.30;98.10;;;;;;4798129;29;20031;-81
2022/01/16 09:06:44;;;;;;;78.57;38.88;;;1.30;98.20;;;;;;4798197;29;20040;-81
2022/01/16 09:09:10;;;;;;;69.72;35.35;;;1.40;98.00;;;;;;4769596;29;20047;-81
2022/01/16 09:11:37;;;;;;;68.95;36.38;;;1.50;97.80;;;;;;4799546;29;20288;-81
2022/01/16 09:14:02;;;;;;;85.47;38.45;;;1.50;97.90;;;;;;4799539;29;20031;-81
2022/01/16 09:16:30;;;;;;;67.28;35.10;;;1.60;97.60;;;;;;4805145;29;20070;-81
2022/01/16 09:18:56;;;;;;;72.53;35.03;;;1.70;97.70;;;;;;4799405;29;20277;-81
2022/01/16 09:21:24;;;;;;;69.73;35.43;;;1.70;97.50;;;;;;4798621;29;20258;-81
2022/01/16 09:23:50;;;;;;;62.13;33.22;;;1.80;97.60;;;;;;4799793;29;20045;-81
2022/01/16 09:26:17;;;;;;;66.88;33.65;;;1.90;97.30;;;;;;4769716;29;20234;-81
2022/01/16 09:28:44;;;;;;;64.13;32.00;;;1.90;97.00;;;;;;4796599;29;20043;-81
2022/01/16 09:31:10;;;;;;;72.75;32.50;;;1.90;97.00;;;;;;4799156;29;20110;-81
2022/01/16 09:33:36;;;;;;;67.03;33.57;;;2.00;97.00;;;;;;4799144;29;20345;-82
2022/01/16 09:36:04;;;;;;;67.75;33.85;;;2.00;97.20;;;;;;4799241;29;20327;-81
2022/01/16 09:38:30;;;;;;;60.00;33.20;;;2.10;97.30;;;;;;4784400;29;20037;-81
2022/01/16 09:40:57;;;;;;;70.60;32.63;;;2.20;97.20;;;;;;4796154;29;20055;-81
2022/01/16 09:43:23;;;;;;;55.38;32.05;;;2.40;97.00;;;;;;4796140;29;20050;-81
2022/01/16 09:45:53;;;;;;;63.17;31.73;;;2.50;96.90;;;;;;4806382;29;20057;-81
2022/01/16 09:48:19;;;;;;;60.30;32.50;;;2.50;96.20;;;;;;4787545;29;20242;-81
2022/01/16 09:50:45;;;;;;;54.80;30.67;;;2.60;96.00;;;;;;4769423;29;20043;-81
2022/01/16 09:53:12;;;;;;;63.17;32.90;;;2.60;95.90;;;;;;4793152;29;20321;-81
2022/01/16 09:55:38;;;;;;;;;;;2.70;95.80;;;;;;4781917;29;20072;-81
2022/01/16 09:58:04;;;;;;;68.15;32.72;;;2.70;95.30;;;;;;4813899;29;19947;-80
2022/01/16 10:00:30;;;;;;;64.13;33.17;;;2.70;95.90;;;;;;4769191;29;20038;-81
2022/01/16 10:02:56;;;;;;;73.32;33.17;;;2.70;95.70;;;;;;4813809;29;20035;-81
2022/01/16 10:05:37;;;;;;;63.55;33.60;;;2.80;95.80;;;;;;4769393;29;20361;-81
2022/01/16 10:08:06;;;;;;;64.07;34.40;;;2.90;95.50;;;;;;4814895;29;20035;-80
2022/01/16 10:10:38;;;;;;;58.20;30.83;;;3.00;95.40;;;;;;4813820;29;20076;-81
2022/01/16 10:13:41;;;;;;;65.65;33.13;;;3.10;95.20;;;;;;4813795;29;20370;-81
2022/01/16 10:16:07;;;;;;;61.90;32.47;;;3.10;95.10;;;;;;4748719;30;20070;-80
2022/01/16 10:18:40;;;;;;;57.90;31.27;;;3.20;95.30;;;;;;4731668;30;20066;-81
2022/01/16 10:21:08;;;;;;;60.67;28.45;;;3.30;95.00;;;;;;4739223;30;20071;-81
2022/01/16 10:23:41;;;;;;;55.45;29.98;;;3.30;95.00;;;;;;4731276;30;20043;-80
2022/01/16 10:26:21;;;;;;;55.58;31.50;;;3.40;94.80;;;;;;4733336;30;20085;-80
2022/01/16 10:28:47;;;;;;;59.65;29.08;;;3.50;94.80;;;;;;4730400;30;20047;-82
2022/01/16 10:31:22;;;;;;;56.85;29.38;;;3.50;94.60;;;;;;4717217;30;20048;-82
2022/01/16 10:33:49;;;;;;;51.50;28.65;;;3.60;94.40;;;;;;4734871;30;20368;-81
2022/01/16 10:36:34;;;;;;;50.05;26.92;;;3.70;94.30;;;;;;4720722;30;20020;-82
2022/01/16 10:39:11;;;;;;;54.42;27.63;;;3.70;94.10;;;;;;4755785;30;20136;-82
2022/01/16 10:41:37;;;;;;;55.47;28.60;;;3.80;93.80;;;;;;4772359;30;20024;-82
2022/01/16 10:44:03;;;;;;;55.85;30.20;;;3.80;93.80;;;;;;4749940;30;20047;-81
2022/01/16 10:46:29;;;;;;;48.50;25.73;;;3.90;93.80;;;;;;4744660;30;20128;-81
2022/01/16 10:49:15;;;;;;;47.35;27.00;;;3.90;93.30;;;;;;4732597;30;20032;-80
2022/01/16 10:51:41;;;;;;;51.25;28.15;;;4.10;93.50;;;;;;4740822;29;20066;-81
2022/01/16 10:54:29;;;;;;;45.22;26.15;;;4.20;93.60;;;;;;4821797;29;20327;-81
2022/01/16 10:56:55;;;;;;;55.90;30.15;;;4.40;93.10;;;;;;4796402;29;20027;-81
2022/01/16 10:59:22;;;;;;;54.17;25.88;;;4.50;93.00;;;;;;4798967;29;20046;-81
2022/01/16 11:02:08;;;;;;;48.08;25.55;;;4.60;93.20;;;;;;4799937;29;20034;-82
2022/01/16 11:04:34;;;;;;;52.33;27.17;;;4.70;92.20;;;;;;4801756;29;20038;-81
2022/01/16 11:07:05;;;;;;;48.88;26.70;;;4.70;92.30;;;;;;4786757;29;20146;-81
2022/01/16 11:09:31;;;;;;;45.13;25.10;;;4.70;92.20;;;;;;4801641;29;20038;-81
2022/01/16 11:12:01;;;;;;;46.35;25.35;;;4.70;92.10;;;;;;4786112;29;20288;-81
2022/01/16 11:14:30;;;;;;;47.78;25.05;;;4.60;92.10;;;;;;4802426;29;20383;-81
2022/01/16 11:16:57;;;;;;;47.58;24.70;;;4.60;92.50;;;;;;4791122;29;20058;-81
2022/01/16 11:19:26;;;;;;;49.03;23.77;;;4.70;92.40;;;;;;4802068;29;20105;-81
2022/01/16 11:21:57;;;;;;;53.47;24.33;;;4.70;92.10;;;;;;4772974;29;20303;-82
2022/01/16 11:26:51;;;;;;;51.83;27.45;;;5.00;92.00;;;;;;4802072;29;20047;-81
2022/01/16 11:29:16;;;;;;;54.00;28.17;;;5.00;91.70;;;;;;4787303;29;20276;-81
2022/01/16 11:31:47;;;;;;;51.33;26.33;;;5.10;91.60;;;;;;4803474;29;20139;-81
2022/01/16 11:34:13;;;;;;;53.03;25.75;;;5.10;91.70;;;;;;4812112;29;20215;-82
2022/01/16 11:36:42;;;;;;;46.58;23.70;;;5.10;91.50;;;;;;4808847;29;20022;-81
2022/01/16 11:39:10;;;;;;;55.30;26.02;;;5.20;91.50;;;;;;4823946;29;20042;-81
2022/01/16 11:41:51;;;;;;;41.65;23.85;;;5.10;91.50;;;;;;4820931;29;20034;-82
2022/01/16 11:44:28;;;;;;;41.47;25.63;;;5.20;91.30;;;;;;4829617;29;20094;-81
2022/01/16 11:46:57;;;;;;;43.92;24.63;;;5.20;91.60;;;;;;4809446;29;20046;-81
2022/01/16 11:49:42;;;;;;;48.28;25.70;;;5.30;91.60;;;;;;4802449;29;20035;-80
2022/01/16 11:52:14;;;;;;;44.28;23.92;;;5.40;91.40;;;;;;4785339;29;20039;-81
2022/01/16 11:54:43;;;;;;;44.85;24.42;;;5.40;91.20;;;;;;4817397;29;20026;-82
2022/01/16 11:57:20;;;;;;;41.75;23.63;;;5.40;91.10;;;;;;4802158;29;20042;-82
2022/01/16 12:00:05;;;;;;;51.08;24.50;;;5.40;91.10;;;;;;4800249;29;20039;-82
2022/01/16 12:02:50;;;;;;;43.95;24.90;;;5.40;91.10;;;;;;4814611;29;20042;-81
2022/01/16 12:05:22;;;;;;;42.45;23.90;;;5.40;91.10;;;;;;4800109;29;20058;-81
2022/01/16 12:07:49;;;;;;;54.13;25.35;;;5.40;91.30;;;;;;4800035;29;20074;-81
2022/01/16 12:10:38;;;;;;;;;;;5.50;91.20;;;;;;4785082;29;20110;-81
2022/01/16 12:13:05;;;;;;;42.70;23.77;;;5.50;90.90;;;;;;4744320;30;20203;-81
2022/01/16 12:15:32;;;;;;;41.40;23.80;;;5.50;90.90;;;;;;4752657;30;20074;-80
2022/01/16 12:17:59;;;;;;;41.45;22.60;;;5.50;91.00;;;;;;4751901;30;20040;-81
2022/01/16 12:20:26;;;;;;;47.05;23.63;;;5.50;90.90;;;;;;4729535;30;20318;-81
2022/01/16 12:23:05;;;;;;;48.03;23.27;;;5.50;90.80;;;;;;4744597;30;20044;-81
2022/01/16 12:25:44;;;;;;;48.42;23.52;;;5.60;91.10;;;;;;4745171;30;20322;-81
2022/01/16 12:28:10;;;;;;;37.95;21.77;;;5.50;90.70;;;;;;4723788;30;20252;-82
2022/01/16 12:30:38;;;;;;;42.47;22.23;;;5.50;90.80;;;;;;4741912;30;20067;-81
2022/01/16 12:33:11;;;;;;;38.85;21.30;;;5.40;90.80;;;;;;4744889;30;20028;-81
2022/01/16 12:35:42;;;;;;;37.78;23.05;;;5.40;91.00;;;;;;4742002;30;20040;-81
2022/01/16 12:38:30;;;;;;;48.97;23.70;;;5.40;91.00;;;;;;4725404;30;20041;-81
2022/01/16 12:41:03;;;;;;;39.45;23.10;;;5.40;91.10;;;;;;4724041;30;20391;-82
2022/01/16 12:43:32;;;;;;;38.78;21.67;;;5.50;91.10;;;;;;4707363;30;20132;-81
2022/01/16 12:46:03;;;;;;;47.53;22.40;;;5.60;90.90;;;;;;4724065;30;20065;-82
2022/01/16 12:48:31;;;;;;;37.72;22.45;;;5.70;91.00;;;;;;4723700;30;20048;-81
2022/01/16 12:51:03;;;;;;;;;;;5.90;90.90;;;;;;4773696;29;20096;-81
2022/01/16 12:53:33;;;;;;;40.03;20.23;;;6.00;89.80;;;;;;4783463;29;19917;-80
2022/01/16 12:56:15;;;;;;;36.40;19.58;;;6.10;90.10;;;;;;4779609;29;20029;-81
2022/01/16 12:58:40;;;;;;;34.42;19.60;;;6.10;88.50;;;;;;4783357;29;20370;-81
2022/01/16 13:01:06;;;;;;;37.58;20.58;;;6.20;88.10;;;;;;4779826;29;20096;-81
2022/01/16 13:03:36;;;;;;;29.63;18.52;;;6.40;88.50;;;;;;4749591;29;20119;-81
2022/01/16 13:06:22;;;;;;;33.97;18.08;;;6.50;86.60;;;;;;4798383;29;20054;-81
2022/01/16 13:09:06;;;;;;;38.97;17.63;;;6.60;86.10;;;;;;4769658;29;20150;-81
2022/01/16 13:11:41;;;;;;;28.08;13.63;;;6.80;84.30;;;;;;4814749;29;20058;-80
2022/01/16 13:14:14;;;;;;;21.38;12.18;;;6.90;80.60;;;;;;4801147;29;20076;-81
2022/01/16 13:16:45;;;;;;;20.92;12.23;;;7.10;78.90;;;;;;4787070;29;20050;-80
2022/01/16 13:19:24;;;;;;;21.60;11.88;;;7.30;77.30;;;;;;4817208;29;20022;-81
2022/01/16 13:22:13;;;;;;;22.77;11.82;;;7.40;76.90;;;;;;4761097;29;20043;-81
2022/01/16 13:24:48;;;;;;;21.15;12.43;;;7.50;76.20;;;;;;4810770;29;20090;-81
2022/01/16 13:27:21;;;;;;;23.58;12.52;;;7.60;75.50;;;;;;4796469;29;20386;-80
2022/01/16 13:29:55;;;;;;;22.52;12.95;;;7.60;74.50;;;;;;4797756;29;20336;-81
2022/01/16 13:32:39;;;;;;;23.08;12.63;;;7.60;74.40;;;;;;4799426;29;20034;-81
2022/01/16 13:35:24;;;;;;;23.73;12.07;;;7.50;74.70;;;;;;4813532;29;20031;-81
2022/01/16 13:37:53;;;;;;;19.80;12.50;;;7.40;74.60;;;;;;4814089;29;20106;-81
2022/01/16 13:40:24;;;;;;;31.52;13.70;;;7.30;75.40;;;;;;4798823;29;20031;-81
2022/01/16 13:43:02;;;;;;;29.88;14.00;;;7.30;75.60;;;;;;4802321;29;20035;-81
2022/01/16 13:45:43;;;;;;;25.90;12.70;;;7.40;75.80;;;;;;4782227;29;20415;-82
2022/01/16 13:48:23;;;;;;;27.55;14.52;;;7.30;75.70;;;;;;4789804;30;20027;-81
2022/01/16 13:50:57;;;;;;;25.20;14.38;;;7.10;76.30;;;;;;4798689;29;20043;-82
2022/01/16 13:53:32;;;;;;;21.90;12.65;;;7.00;77.10;;;;;;4798893;29;20122;-82
2022/01/16 13:56:08;;;;;;;24.27;13.98;;;7.00;77.10;;;;;;4798638;29;20051;-81
2022/01/16 13:58:43;;;;;;;22.48;12.55;;;7.00;77.40;;;;;;4816052;29;20022;-81
2022/01/16 14:01:15;;;;;;;25.30;13.80;;;7.00;77.30;;;;;;4803216;29;20035;-81
2022/01/16 14:03:48;;;;;;;29.17;16.58;;;7.10;77.20;;;;;;4803586;29;20069;-82
2022/01/16 14:06:16;;;;;;;24.10;13.50;;;7.10;77.40;;;;;;4809711;29;20046;-81
2022/01/16 14:08:59;;;;;;;22.83;12.57;;;7.10;78.00;;;;;;4811446;29;20042;-82
2022/01/16 14:11:27;;;;;;;23.90;13.90;;;7.10;77.30;;;;;;4807534;29;20037;-82
2022/01/16 14:14:01;;;;;;;24.52;12.10;;;7.10;77.60;;;;;;4794081;29;20369;-82
2022/01/16 14:19:19;;;;;;;24.10;12.85;;;7.30;77.00;;;;;;4812956;29;20148;-82
2022/01/16 14:22:02;;;;;;;23.35;11.98;;;7.20;77.80;;;;;;4797052;29;20039;-81
2022/01/16 14:24:29;;;;;;;22.50;12.80;;;7.20;77.50;;;;;;4814804;29;20132;-82
2022/01/16 14:26:58;;;;;;;23.02;13.18;;;7.10;77.30;;;;;;4815890;29;20031;-82
2022/01/16 14:29:24;;;;;;;22.75;13.05;;;7.00;77.70;;;;;;4802637;29;20361;-82
2022/01/16 14:31:53;;;;;;;30.15;15.07;;;6.90;77.40;;;;;;4786129;29;20327;-82
2022/01/16 14:34:21;;;;;;;18.52;11.48;;;6.80;77.80;;;;;;4816079;29;20030;-82
2022/01/16 14:36:47;;;;;;;26.02;13.40;;;6.70;77.50;;;;;;4801049;29;20039;-82
2022/01/16 14:39:14;;;;;;;22.03;13.33;;;6.70;77.90;;;;;;4801011;29;20039;-81
2022/01/16 14:41:45;;;;;;;28.60;12.37;;;6.70;77.90;;;;;;4799563;29;20303;-81
2022/01/16 14:44:11;;;;;;;22.38;11.77;;;6.70;77.90;;;;;;4803232;29;20026;-81
2022/01/16 14:46:37;;;;;;;21.40;12.02;;;6.70;77.60;;;;;;4804790;29;20030;-81
2022/01/16 14:49:03;;;;;;;24.58;12.68;;;6.60;78.10;;;;;;4796051;29;20057;-82
2022/01/16 14:51:29;;;;;;;21.08;11.85;;;6.70;78.20;;;;;;4786336;29;20204;-81
2022/01/16 14:53:55;;;;;;;23.42;13.05;;;6.60;77.90;;;;;;4786788;29;20073;-81
2022/01/16 14:56:21;;;;;;;25.30;13.85;;;6.60;78.30;;;;;;4785963;29;20363;-83
2022/01/16 14:58:47;;;;;;;25.27;13.50;;;6.50;78.10;;;;;;4801430;29;20035;-82
2022/01/16 15:01:16;;;;;;;24.00;12.65;;;6.50;78.60;;;;;;4786627;29;20039;-82
2022/01/16 15:03:43;;;;;;;25.10;12.90;;;6.40;78.90;;;;;;4801460;29;20050;-82
2022/01/16 15:06:09;;;;;;;27.52;14.85;;;6.40;79.00;;;;;;4801267;29;20041;-82
2022/01/16 15:08:38;;;;;;;26.02;12.48;;;6.30;78.60;;;;;;4801693;29;20049;-82
2022/01/16 15:11:05;;;;;;;24.88;13.38;;;6.20;77.50;;;;;;4808872;29;20043;-82
2022/01/16 15:13:31;;;;;;;22.25;11.20;;;6.20;77.70;;;;;;4808501;29;20035;-82
2022/01/16 15:15:57;;;;;;;23.70;12.30;;;6.10;77.90;;;;;;4804275;29;20038;-83
2022/01/16 15:18:24;;;;;;;20.27;11.88;;;6.10;77.80;;;;;;4804624;29;20043;-82
2022/01/16 15:20:57;;;;;;;23.15;12.38;;;6.10;77.60;;;;;;4824112;29;20092;-81
2022/01/16 15:23:24;;;;;;;25.52;13.40;;;6.10;78.00;;;;;;4824480;29;20244;-83
2022/01/16 15:25:51;;;;;;;25.55;13.50;;;6.10;78.10;;;;;;4798388;29;20041;-81
2022/01/16 15:28:20;;;;;;;21.92;12.60;;;6.00;78.20;;;;;;4815381;29;20054;-81
2022/01/16 15:30:49;;;;;;;23.77;13.35;;;5.90;78.70;;;;;;4802918;29;20051;-81
2022/01/16 15:33:15;;;;;;;24.40;13.30;;;5.90;78.80;;;;;;4803467;29;20054;-82
2022/01/16 15:35:44;;;;;;;24.88;13.52;;;5.90;79.10;;;;;;4802598;29;20356;-82
2022/01/16 15:38:10;;;;;;;24.48;13.25;;;5.80;79.20;;;;;;4819937;29;20252;-82
2022/01/16 15:40:37;;;;;;;24.48;13.73;;;5.80;79.20;;;;;;4791175;29;20054;-82
2022/01/16 15:43:12;;;;;;;23.95;13.27;;;5.80;79.30;;;;;;4816942;29;20046;-81
2022/01/16 15:45:39;;;;;;;25.45;13.07;;;5.80;79.80;;;;;;4800833;29;20452;-82
2022/01/16 15:48:05;;;;;;;22.50;12.82;;;5.80;79.00;;;;;;4785197;29;20039;-82
2022/01/16 15:50:32;;;;;;;23.38;12.98;;;5.80;78.80;;;;;;4816483;29;20392;-82
2022/01/16 15:52:58;;;;;;;25.20;13.45;;;5.80;78.80;;;;;;4804360;29;20042;-83
2022/01/16 15:55:25;;;;;;;20.33;11.23;;;5.80;78.50;;;;;;4788225;29;20030;-82
2022/01/16 15:57:51;;;;;;;28.63;12.67;;;5.80;78.10;;;;;;4804502;29;20251;-83
2022/01/16 16:00:19;;;;;;;23.23;12.55;;;5.80;78.10;;;;;;4814957;29;20115;-83
2022/01/16 16:02:45;;;;;;;26.20;14.30;;;5.90;78.10;;;;;;4816214;29;20116;-83
2022/01/16 16:05:12;;;;;;;27.92;14.32;;;5.90;78.60;;;;;;4814120;29;20042;-82
2022/01/16 16:07:38;;;;;;;27.67;14.00;;;5.80;78.90;;;;;;4784759;29;20282;-83
2022/01/16 16:10:05;;;;;;;27.25;14.93;;;5.80;79.90;;;;;;4786059;29;20143;-83
2022/01/16 16:12:31;;;;;;;27.77;14.80;;;5.80;79.60;;;;;;4780604;29;20035;-82
2022/01/16 16:14:58;;;;;;;36.75;17.00;;;5.70;80.60;;;;;;4795442;29;20231;-82
2022/01/16 16:17:24;;;;;;;;;;;5.70;81.50;;;;;;4800390;29;20324;-82
2022/01/16 16:19:50;;;;;;;32.22;17.95;;;5.50;82.70;;;;;;4813170;29;20112;-82
2022/01/16 16:22:16;;;;;;;39.08;18.65;;;5.50;83.20;;;;;;4814308;29;20031;-83
2022/01/16 16:24:42;;;;;;;45.63;22.15;;;5.40;84.50;;;;;;4799190;29;20045;-83
2022/01/16 16:27:08;;;;;;;39.78;19.48;;;5.30;85.20;;;;;;4784333;29;20030;-83
2022/01/16 16:29:37;;;;;;;40.58;20.45;;;5.20;86.20;;;;;;4796278;29;20080;-83
2022/01/16 16:32:05;;;;;;;44.58;20.65;;;5.10;86.90;;;;;;4795634;29;20035;-83
2022/01/16 16:34:31;;;;;;;46.95;21.50;;;5.00;87.70;;;;;;4802480;29;20046;-83
2022/01/16 16:36:56;;;;;;;43.35;21.63;;;5.00;88.20;;;;;;4769412;29;20326;-84
2022/01/16 16:39:22;;;;;;;45.97;23.52;;;4.90;88.80;;;;;;4765198;29;20043;-83